Terminal Aerodrome Forecast
Issued by NWS Twin Cities, MN

Home | Current Version | Previous Version | Graphics & Text | Print | Product List | Glossary On
Versions: 1 2 3 4 5 6 7 8 9 10 11 12 13 14 15 16 17 18 19 20 21 22 23 24 25 26 27 28
000
FTUS43 KMPX 190500
TAFMSP
TAF
KMSP 190520Z 1906/2012 24005KT P6SM SCT060
     FM190900 28004KT P6SM SCT025
      TEMPO 1910/1912 5SM BR BKN025
     FM191200 30006KT P6SM SCT035 SCT200
     FM191900 31009KT P6SM SCT200
     FM200300 05004KT P6SM FEW200=

USA.gov is the U.S. government's official web portal to all federal, state and local government web resources and services.